Matagami Airport
CYNM : rendu visible

Aérodrome :











RETROUVEZ-NOUS SUR...

 
LOGIN :

S'inscrire | Disclaimer

   EN    FR    IT 

 









Légende :    VFR   VFR Marginal   IFR   IFR Intensif   IFR Très Intensif
Visi : 
Plafond : 
>= 8 km
>= 3000ft
5 à 8 km
1000 à 3000 ft
1500m à 5 km
500 à 1000 ft
800 à 1500m
200 à 500 ft
< 800m
< 200 ft
Symboles :   Orages  Brouillard  Fortes neiges  Fortes précipitations  Vent > 20 kt






- Altitude de l'aérodrome : 918 ft
- Code IATA : YNM


CYNM - Matagami

DERNIER METAR :
  • 100900Z AUTO 30014G21KT 1 1/2SM -SN OVC024 M17/M19 A2930 RMK PRESRR SLP951

METARs EXPIRÉS :
  • 100841Z AUTO 31014KT 1 1/2SM -SN OVC022 M17/M19 A2927 RMK PRESRR SLP941
  • 100810Z AUTO 32015KT 3/4SM -SN VV010 M16/M18 A2924 RMK SLP930
  • 100800Z AUTO 32013KT 3/4SM -SN VV009 M16/M18 A2923 RMK SLP926
  • 100739Z AUTO 32012G17KT 1 1/4SM -SN OVC015 M16/M18 A2923 RMK SLP926
  • 100724Z AUTO 32012KT 1 1/2SM -SN OVC019 M16/M18 A2923 RMK SLP925
  • 100700Z AUTO 32013KT 1SM -SN VV012 M16/M17 A2922 RMK SLP924
  • 100630Z AUTO 32011G16KT 1 1/4SM -SN OVC021 M15/M17 A2922 RMK SLP923
  • 100625Z AUTO 32011G16KT 1 1/2SM -SN BKN023 OVC050 M15/M17 A2922 RMK SLP923
  • 100608Z AUTO 32009KT 2 1/2SM -SN FEW025 BKN037 OVC050 M15/M17 A2921 RMK SLP921
  • 100600Z AUTO 34009G16KT 3SM -SN SCT025 OVC050 M15/M16 A2921 RMK SLP919

TAF N/A



MET'MAP, la Météo Aéronautique d'un coup d'oeil ! - Copyright ORBIFLY Décembre 2007 - Disclaimer

ORBIFLY MET'MAP TEAM :

Programmation & Développement : Alexandra Zaïnal
Sur une idée originale de : Baudouin d'Aumeries
Assistance à la programmation : Marc-Olivier Méhu
Soutien technique & logistique : Manuel Goepfert

Contact : metmap@orbifly.com




SOURCES & CREDITS :

   NOAA       Earth
Advisory